sensor_id;sensor_type;location;lat;lon;timestamp;pressure;altitude;pressure_sealevel;temperature;humidity
58385;BME280;44185;47.844;8.966;2023-04-06T00:00:05;96351.28;;;-1.14;93.96
58385;BME280;44185;47.844;8.966;2023-04-06T00:02:30;96346.25;;;-1.19;93.85
58385;BME280;44185;47.844;8.966;2023-04-06T00:04:56;96339.25;;;-1.17;93.22
58385;BME280;44185;47.844;8.966;2023-04-06T00:07:21;96346.34;;;-1.22;93.66
58385;BME280;44185;47.844;8.966;2023-04-06T00:09:47;96344.97;;;-1.31;93.99
58385;BME280;44185;47.844;8.966;2023-04-06T00:12:12;96345.81;;;-1.30;94.50
58385;BME280;44185;47.844;8.966;2023-04-06T00:14:38;96344.22;;;-1.35;95.69
58385;BME280;44185;47.844;8.966;2023-04-06T00:17:04;96337.75;;;-1.23;95.96
58385;BME280;44185;47.844;8.966;2023-04-06T00:19:30;96347.16;;;-1.20;94.69
58385;BME280;44185;47.844;8.966;2023-04-06T00:21:55;96346.78;;;-1.33;94.34
58385;BME280;44185;47.844;8.966;2023-04-06T00:24:21;96341.44;;;-1.30;94.92
58385;BME280;44185;47.844;8.966;2023-04-06T00:26:46;96346.72;;;-1.31;94.18
58385;BME280;44185;47.844;8.966;2023-04-06T00:29:12;96344.31;;;-1.38;95.00
58385;BME280;44185;47.844;8.966;2023-04-06T00:31:37;96346.13;;;-1.40;95.09
58385;BME280;44185;47.844;8.966;2023-04-06T00:34:05;96339.28;;;-1.41;94.21
58385;BME280;44185;47.844;8.966;2023-04-06T00:36:31;96333.44;;;-1.48;94.99
58385;BME280;44185;47.844;8.966;2023-04-06T00:38:56;96335.34;;;-1.53;95.47
58385;BME280;44185;47.844;8.966;2023-04-06T00:41:22;96343.53;;;-1.40;93.71
58385;BME280;44185;47.844;8.966;2023-04-06T00:43:47;96341.50;;;-1.55;92.49
58385;BME280;44185;47.844;8.966;2023-04-06T00:46:13;96335.13;;;-1.47;92.77
58385;BME280;44185;47.844;8.966;2023-04-06T00:48:38;96334.50;;;-1.53;94.38
58385;BME280;44185;47.844;8.966;2023-04-06T00:51:05;96322.72;;;-1.62;95.00
58385;BME280;44185;47.844;8.966;2023-04-06T00:53:31;96325.69;;;-1.73;94.62
58385;BME280;44185;47.844;8.966;2023-04-06T00:55:56;96327.75;;;-1.83;95.38
58385;BME280;44185;47.844;8.966;2023-04-06T00:58:23;96322.72;;;-1.88;96.55
58385;BME280;44185;47.844;8.966;2023-04-06T01:00:48;96323.56;;;-1.87;97.03
58385;BME280;44185;47.844;8.966;2023-04-06T01:03:14;96318.28;;;-1.84;97.20
58385;BME280;44185;47.844;8.966;2023-04-06T01:05:39;96318.97;;;-1.79;95.17
58385;BME280;44185;47.844;8.966;2023-04-06T01:08:06;96308.50;;;-1.77;94.43
58385;BME280;44185;47.844;8.966;2023-04-06T01:10:32;96315.59;;;-1.83;94.75
58385;BME280;44185;47.844;8.966;2023-04-06T01:12:57;96317.22;;;-1.79;96.92
58385;BME280;44185;47.844;8.966;2023-04-06T01:15:24;96315.28;;;-1.99;97.43
58385;BME280;44185;47.844;8.966;2023-04-06T01:17:50;96307.16;;;-2.14;98.21
58385;BME280;44185;47.844;8.966;2023-04-06T01:20:16;96311.50;;;-2.41;99.65
58385;BME280;44185;47.844;8.966;2023-04-06T01:22:43;96319.59;;;-2.51;100.00
58385;BME280;44185;47.844;8.966;2023-04-06T01:25:10;96308.81;;;-2.65;100.00
58385;BME280;44185;47.844;8.966;2023-04-06T01:27:35;96307.03;;;-2.63;100.00
58385;BME280;44185;47.844;8.966;2023-04-06T01:30:01;96312.31;;;-2.66;100.00
58385;BME280;44185;47.844;8.966;2023-04-06T01:32:26;96320.06;;;-2.66;100.00
58385;BME280;44185;47.844;8.966;2023-04-06T01:34:52;96313.44;;;-2.48;100.00
58385;BME280;44185;47.844;8.966;2023-04-06T01:37:17;96307.13;;;-2.39;99.48
58385;BME280;44185;47.844;8.966;2023-04-06T01:39:44;96304.53;;;-2.39;98.04
58385;BME280;44185;47.844;8.966;2023-04-06T01:42:10;96306.03;;;-2.32;98.06
58385;BME280;44185;47.844;8.966;2023-04-06T01:44:35;96303.53;;;-2.35;97.82
58385;BME280;44185;47.844;8.966;2023-04-06T01:47:01;96301.47;;;-2.25;99.32
58385;BME280;44185;47.844;8.966;2023-04-06T01:49:26;96303.78;;;-2.16;100.00
58385;BME280;44185;47.844;8.966;2023-04-06T01:51:52;96298.59;;;-2.16;98.67
58385;BME280;44185;47.844;8.966;2023-04-06T01:54:17;96298.88;;;-2.25;97.88
58385;BME280;44185;47.844;8.966;2023-04-06T01:56:44;96302.50;;;-2.31;98.75
58385;BME280;44185;47.844;8.966;2023-04-06T01:59:09;96300.88;;;-2.33;97.20
58385;BME280;44185;47.844;8.966;2023-04-06T02:01:35;96300.56;;;-2.50;95.75
58385;BME280;44185;47.844;8.966;2023-04-06T02:04:00;96296.78;;;-2.41;95.46
58385;BME280;44185;47.844;8.966;2023-04-06T02:06:26;96303.19;;;-2.51;96.84
58385;BME280;44185;47.844;8.966;2023-04-06T02:08:51;96303.16;;;-2.50;96.71
58385;BME280;44185;47.844;8.966;2023-04-06T02:11:17;96303.94;;;-2.48;95.09
58385;BME280;44185;47.844;8.966;2023-04-06T02:13:44;96305.13;;;-2.58;96.63
58385;BME280;44185;47.844;8.966;2023-04-06T02:16:09;96303.94;;;-2.48;95.54
58385;BME280;44185;47.844;8.966;2023-04-06T02:18:34;96301.38;;;-2.49;96.00
58385;BME280;44185;47.844;8.966;2023-04-06T02:21:00;96302.91;;;-2.42;97.52
58385;BME280;44185;47.844;8.966;2023-04-06T02:23:25;96302.22;;;-2.49;97.81
58385;BME280;44185;47.844;8.966;2023-04-06T02:25:51;96307.66;;;-2.57;95.95
58385;BME280;44185;47.844;8.966;2023-04-06T02:28:16;96311.19;;;-2.58;95.67
58385;BME280;44185;47.844;8.966;2023-04-06T02:30:43;96305.41;;;-2.68;96.96
58385;BME280;44185;47.844;8.966;2023-04-06T02:33:09;96308.00;;;-2.68;96.45
58385;BME280;44185;47.844;8.966;2023-04-06T02:35:34;96301.41;;;-2.76;98.65
58385;BME280;44185;47.844;8.966;2023-04-06T02:38:00;96306.34;;;-2.97;99.12
58385;BME280;44185;47.844;8.966;2023-04-06T02:40:25;96302.84;;;-2.96;98.63
58385;BME280;44185;47.844;8.966;2023-04-06T02:42:51;96302.31;;;-3.08;98.39
58385;BME280;44185;47.844;8.966;2023-04-06T02:45:16;96292.78;;;-3.06;100.00
58385;BME280;44185;47.844;8.966;2023-04-06T02:47:43;96299.53;;;-3.02;98.53
58385;BME280;44185;47.844;8.966;2023-04-06T02:50:09;96298.53;;;-2.96;100.00
58385;BME280;44185;47.844;8.966;2023-04-06T02:52:34;96294.13;;;-2.94;100.00
58385;BME280;44185;47.844;8.966;2023-04-06T02:55:00;96302.50;;;-2.85;100.00
58385;BME280;44185;47.844;8.966;2023-04-06T02:57:25;96295.53;;;-2.83;99.63
58385;BME280;44185;47.844;8.966;2023-04-06T02:59:51;96301.03;;;-2.93;96.83
58385;BME280;44185;47.844;8.966;2023-04-06T03:02:16;96298.34;;;-2.89;98.29
58385;BME280;44185;47.844;8.966;2023-04-06T03:04:43;96297.88;;;-3.03;100.00
58385;BME280;44185;47.844;8.966;2023-04-06T03:07:09;96299.94;;;-3.14;100.00
58385;BME280;44185;47.844;8.966;2023-04-06T03:09:36;96301.66;;;-3.15;100.00
58385;BME280;44185;47.844;8.966;2023-04-06T03:12:02;96295.41;;;-3.07;100.00
58385;BME280;44185;47.844;8.966;2023-04-06T03:14:28;96297.91;;;-3.04;97.67
58385;BME280;44185;47.844;8.966;2023-04-06T03:16:53;96300.72;;;-3.12;97.37
58385;BME280;44185;47.844;8.966;2023-04-06T03:19:19;96296.50;;;-3.15;99.00
58385;BME280;44185;47.844;8.966;2023-04-06T03:21:46;96300.66;;;-3.10;99.32
58385;BME280;44185;47.844;8.966;2023-04-06T03:24:11;96294.53;;;-3.06;97.18
58385;BME280;44185;47.844;8.966;2023-04-06T03:26:37;96296.16;;;-3.04;98.24
58385;BME280;44185;47.844;8.966;2023-04-06T03:29:02;96298.66;;;-3.00;99.11
58385;BME280;44185;47.844;8.966;2023-04-06T03:31:28;96297.09;;;-3.06;97.27
58385;BME280;44185;47.844;8.966;2023-04-06T03:33:53;96297.13;;;-3.08;96.55
58385;BME280;44185;47.844;8.966;2023-04-06T03:36:19;96301.50;;;-3.08;96.57
58385;BME280;44185;47.844;8.966;2023-04-06T03:38:46;96301.53;;;-3.10;96.54
58385;BME280;44185;47.844;8.966;2023-04-06T03:41:12;96300.19;;;-3.24;96.98
58385;BME280;44185;47.844;8.966;2023-04-06T03:43:38;96305.50;;;-3.28;97.71
58385;BME280;44185;47.844;8.966;2023-04-06T03:46:03;96306.22;;;-3.23;99.71
58385;BME280;44185;47.844;8.966;2023-04-06T03:48:29;96300.81;;;-3.15;100.00
58385;BME280;44185;47.844;8.966;2023-04-06T03:50:54;96307.34;;;-3.32;100.00
58385;BME280;44185;47.844;8.966;2023-04-06T03:53:20;96305.94;;;-3.44;100.00
58385;BME280;44185;47.844;8.966;2023-04-06T03:55:46;96302.59;;;-3.48;100.00
58385;BME280;44185;47.844;8.966;2023-04-06T03:58:12;96308.69;;;-3.49;100.00
58385;BME280;44185;47.844;8.966;2023-04-06T04:00:37;96304.38;;;-3.50;100.00
58385;BME280;44185;47.844;8.966;2023-04-06T04:03:03;96304.81;;;-3.65;100.00
58385;BME280;44185;47.844;8.966;2023-04-06T04:05:28;96306.66;;;-3.69;100.00
58385;BME280;44185;47.844;8.966;2023-04-06T04:07:54;96306.56;;;-3.66;100.00
58385;BME280;44185;47.844;8.966;2023-04-06T04:10:19;96309.91;;;-3.62;100.00
58385;BME280;44185;47.844;8.966;2023-04-06T04:12:46;96311.50;;;-3.58;100.00
58385;BME280;44185;47.844;8.966;2023-04-06T04:15:12;96311.63;;;-3.61;100.00
58385;BME280;44185;47.844;8.966;2023-04-06T04:17:37;96312.44;;;-3.61;100.00
58385;BME280;44185;47.844;8.966;2023-04-06T04:20:04;96310.72;;;-3.60;100.00
58385;BME280;44185;47.844;8.966;2023-04-06T04:22:29;96309.97;;;-3.64;100.00
58385;BME280;44185;47.844;8.966;2023-04-06T04:24:55;96314.09;;;-3.58;100.00
58385;BME280;44185;47.844;8.966;2023-04-06T04:27:20;96316.88;;;-3.64;100.00
58385;BME280;44185;47.844;8.966;2023-04-06T04:29:47;96312.78;;;-3.72;100.00
58385;BME280;44185;47.844;8.966;2023-04-06T04:32:13;96303.94;;;-3.64;100.00
58385;BME280;44185;47.844;8.966;2023-04-06T04:34:38;96304.19;;;-3.74;100.00
58385;BME280;44185;47.844;8.966;2023-04-06T04:37:04;96317.25;;;-3.78;100.00
58385;BME280;44185;47.844;8.966;2023-04-06T04:39:29;96320.56;;;-3.73;100.00
58385;BME280;44185;47.844;8.966;2023-04-06T04:41:55;96311.91;;;-3.72;100.00
58385;BME280;44185;47.844;8.966;2023-04-06T04:44:20;96321.47;;;-3.74;100.00
58385;BME280;44185;47.844;8.966;2023-04-06T04:46:47;96318.03;;;-3.75;99.84
58385;BME280;44185;47.844;8.966;2023-04-06T04:49:13;96320.69;;;-3.78;100.00
58385;BME280;44185;47.844;8.966;2023-04-06T04:51:38;96325.72;;;-3.73;100.00
58385;BME280;44185;47.844;8.966;2023-04-06T04:54:04;96323.78;;;-3.65;100.00
58385;BME280;44185;47.844;8.966;2023-04-06T04:56:30;96323.50;;;-3.54;100.00
58385;BME280;44185;47.844;8.966;2023-04-06T04:58:55;96332.09;;;-3.53;100.00
58385;BME280;44185;47.844;8.966;2023-04-06T05:01:21;96331.31;;;-3.57;100.00
58385;BME280;44185;47.844;8.966;2023-04-06T05:03:47;96335.88;;;-3.65;100.00
58385;BME280;44185;47.844;8.966;2023-04-06T05:06:13;96337.78;;;-3.72;100.00
58385;BME280;44185;47.844;8.966;2023-04-06T05:08:38;96335.69;;;-3.91;100.00
58385;BME280;44185;47.844;8.966;2023-04-06T05:11:04;96337.66;;;-4.01;100.00
58385;BME280;44185;47.844;8.966;2023-04-06T05:13:30;96335.88;;;-3.99;100.00
58385;BME280;44185;47.844;8.966;2023-04-06T05:15:55;96338.69;;;-4.07;100.00
58385;BME280;44185;47.844;8.966;2023-04-06T05:18:21;96332.53;;;-4.03;100.00
58385;BME280;44185;47.844;8.966;2023-04-06T05:20:48;96340.28;;;-4.03;100.00
58385;BME280;44185;47.844;8.966;2023-04-06T05:23:13;96336.25;;;-3.80;100.00
58385;BME280;44185;47.844;8.966;2023-04-06T05:25:39;96351.38;;;-3.65;100.00
58385;BME280;44185;47.844;8.966;2023-04-06T05:28:04;96345.41;;;-3.67;100.00
58385;BME280;44185;47.844;8.966;2023-04-06T05:30:30;96346.84;;;-3.57;100.00
58385;BME280;44185;47.844;8.966;2023-04-06T05:32:55;96345.88;;;-3.53;100.00
58385;BME280;44185;47.844;8.966;2023-04-06T05:35:21;96352.59;;;-3.46;100.00
58385;BME280;44185;47.844;8.966;2023-04-06T05:37:48;96349.59;;;-3.31;100.00
58385;BME280;44185;47.844;8.966;2023-04-06T05:40:13;96352.50;;;-3.12;100.00
58385;BME280;44185;47.844;8.966;2023-04-06T05:42:39;96347.09;;;-2.75;100.00
58385;BME280;44185;47.844;8.966;2023-04-06T05:45:06;96354.66;;;-2.40;98.64
58385;BME280;44185;47.844;8.966;2023-04-06T05:47:32;96354.66;;;-2.40;98.12
58385;BME280;44185;47.844;8.966;2023-04-06T05:49:57;96357.81;;;-2.30;97.53
58385;BME280;44185;47.844;8.966;2023-04-06T05:52:23;96357.31;;;-2.15;97.59
58385;BME280;44185;47.844;8.966;2023-04-06T05:54:50;96358.75;;;-1.80;96.44
58385;BME280;44185;47.844;8.966;2023-04-06T05:57:16;96365.63;;;-1.53;95.62
58385;BME280;44185;47.844;8.966;2023-04-06T05:59:41;96365.72;;;-1.31;93.93
58385;BME280;44185;47.844;8.966;2023-04-06T06:02:07;96366.41;;;-1.02;92.18
58385;BME280;44185;47.844;8.966;2023-04-06T06:04:32;96367.63;;;-0.64;90.14
58385;BME280;44185;47.844;8.966;2023-04-06T06:06:58;96367.19;;;-0.30;89.14
58385;BME280;44185;47.844;8.966;2023-04-06T06:09:23;96366.00;;;-0.01;88.24
58385;BME280;44185;47.844;8.966;2023-04-06T06:11:50;96373.03;;;0.18;86.01
58385;BME280;44185;47.844;8.966;2023-04-06T06:14:16;96373.03;;;0.39;85.01
58385;BME280;44185;47.844;8.966;2023-04-06T06:16:41;96375.50;;;0.42;84.27
58385;BME280;44185;47.844;8.966;2023-04-06T06:19:07;96368.31;;;0.69;82.47
58385;BME280;44185;47.844;8.966;2023-04-06T06:21:32;96370.53;;;0.97;81.86
58385;BME280;44185;47.844;8.966;2023-04-06T06:23:58;96376.44;;;1.20;81.01
58385;BME280;44185;47.844;8.966;2023-04-06T06:26:23;96373.53;;;1.46;80.23
58385;BME280;44185;47.844;8.966;2023-04-06T06:28:50;96371.41;;;1.54;79.21
58385;BME280;44185;47.844;8.966;2023-04-06T06:31:16;96366.63;;;1.64;78.94
58385;BME280;44185;47.844;8.966;2023-04-06T06:33:41;96368.00;;;1.72;78.31
58385;BME280;44185;47.844;8.966;2023-04-06T06:36:07;96370.69;;;1.70;78.55
58385;BME280;44185;47.844;8.966;2023-04-06T06:38:32;96367.41;;;1.84;78.28
58385;BME280;44185;47.844;8.966;2023-04-06T06:40:58;96368.13;;;1.88;78.42
58385;BME280;44185;47.844;8.966;2023-04-06T06:43:23;96382.78;;;2.08;78.44
58385;BME280;44185;47.844;8.966;2023-04-06T06:45:50;96373.34;;;2.24;77.16
58385;BME280;44185;47.844;8.966;2023-04-06T06:48:16;96372.19;;;2.29;77.16
58385;BME280;44185;47.844;8.966;2023-04-06T06:50:41;96379.19;;;2.47;76.82
58385;BME280;44185;47.844;8.966;2023-04-06T06:53:07;96377.88;;;2.38;75.58
58385;BME280;44185;47.844;8.966;2023-04-06T06:55:32;96380.16;;;2.62;75.86
58385;BME280;44185;47.844;8.966;2023-04-06T06:57:58;96378.00;;;2.70;74.68
58385;BME280;44185;47.844;8.966;2023-04-06T07:00:24;96384.88;;;2.89;74.34
58385;BME280;44185;47.844;8.966;2023-04-06T07:02:50;96381.97;;;2.77;74.06
58385;BME280;44185;47.844;8.966;2023-04-06T07:05:16;96380.06;;;2.97;74.94
58385;BME280;44185;47.844;8.966;2023-04-06T07:07:42;96386.28;;;3.13;73.64
58385;BME280;44185;47.844;8.966;2023-04-06T07:10:08;96388.31;;;3.24;72.64
58385;BME280;44185;47.844;8.966;2023-04-06T07:12:34;96387.53;;;3.38;71.90
58385;BME280;44185;47.844;8.966;2023-04-06T07:15:00;96388.88;;;3.61;72.76
58385;BME280;44185;47.844;8.966;2023-04-06T07:17:25;96381.97;;;3.60;70.27
58385;BME280;44185;47.844;8.966;2023-04-06T07:19:52;96393.88;;;3.66;70.60
58385;BME280;44185;47.844;8.966;2023-04-06T07:22:18;96389.63;;;3.96;70.51
58385;BME280;44185;47.844;8.966;2023-04-06T07:24:43;96386.47;;;4.05;69.64
58385;BME280;44185;47.844;8.966;2023-04-06T07:27:09;96387.19;;;3.93;69.50
58385;BME280;44185;47.844;8.966;2023-04-06T07:29:34;96392.31;;;3.94;70.58
58385;BME280;44185;47.844;8.966;2023-04-06T07:32:00;96396.38;;;4.31;70.10
58385;BME280;44185;47.844;8.966;2023-04-06T07:34:25;96385.00;;;4.47;70.13
58385;BME280;44185;47.844;8.966;2023-04-06T07:36:52;96391.03;;;4.63;70.04
58385;BME280;44185;47.844;8.966;2023-04-06T07:39:18;96386.28;;;4.39;68.16
58385;BME280;44185;47.844;8.966;2023-04-06T07:41:43;96387.47;;;3.39;70.39
58385;BME280;44185;47.844;8.966;2023-04-06T07:44:08;96393.63;;;3.87;71.83
58385;BME280;44185;47.844;8.966;2023-04-06T07:46:34;96389.00;;;4.07;73.26
58385;BME280;44185;47.844;8.966;2023-04-06T07:49:00;96391.19;;;4.60;71.84
58385;BME280;44185;47.844;8.966;2023-04-06T07:51:26;96385.63;;;4.96;69.95
58385;BME280;44185;47.844;8.966;2023-04-06T07:53:52;96391.28;;;4.13;69.54
58385;BME280;44185;47.844;8.966;2023-04-06T07:56:18;96393.31;;;4.08;71.82
58385;BME280;44185;47.844;8.966;2023-04-06T07:58:44;96391.94;;;4.62;70.02
58385;BME280;44185;47.844;8.966;2023-04-06T08:01:09;96388.88;;;4.55;67.17
58385;BME280;44185;47.844;8.966;2023-04-06T08:03:35;96386.91;;;4.74;66.98
58385;BME280;44185;47.844;8.966;2023-04-06T08:06:01;96382.41;;;4.76;63.90
58385;BME280;44185;47.844;8.966;2023-04-06T08:08:27;96388.00;;;4.55;65.65
58385;BME280;44185;47.844;8.966;2023-04-06T08:10:54;96383.63;;;4.99;65.75
58385;BME280;44185;47.844;8.966;2023-04-06T08:13:19;96381.97;;;4.98;67.11
58385;BME280;44185;47.844;8.966;2023-04-06T08:15:45;96384.50;;;5.15;65.77
58385;BME280;44185;47.844;8.966;2023-04-06T08:18:11;96380.91;;;5.30;66.62
58385;BME280;44185;47.844;8.966;2023-04-06T08:20:37;96386.25;;;5.43;64.32
58385;BME280;44185;47.844;8.966;2023-04-06T08:23:02;96384.59;;;5.55;65.17
58385;BME280;44185;47.844;8.966;2023-04-06T08:25:28;96379.16;;;5.59;62.91
58385;BME280;44185;47.844;8.966;2023-04-06T08:27:55;96378.00;;;5.77;63.33
58385;BME280;44185;47.844;8.966;2023-04-06T08:30:21;96371.41;;;5.85;64.58
58385;BME280;44185;47.844;8.966;2023-04-06T08:32:47;96374.00;;;5.15;63.40
58385;BME280;44185;47.844;8.966;2023-04-06T08:35:12;96378.00;;;5.20;65.24
58385;BME280;44185;47.844;8.966;2023-04-06T08:37:38;96374.22;;;5.39;63.79
58385;BME280;44185;47.844;8.966;2023-04-06T08:40:04;96372.03;;;5.04;64.80
58385;BME280;44185;47.844;8.966;2023-04-06T08:42:32;96373.13;;;5.29;64.37
58385;BME280;44185;47.844;8.966;2023-04-06T08:45:00;96369.56;;;5.30;65.67
58385;BME280;44185;47.844;8.966;2023-04-06T08:47:26;96378.69;;;4.95;64.22
58385;BME280;44185;47.844;8.966;2023-04-06T08:49:52;96367.59;;;5.33;65.56
58385;BME280;44185;47.844;8.966;2023-04-06T08:52:19;96376.25;;;5.63;65.13
58385;BME280;44185;47.844;8.966;2023-04-06T08:54:45;96363.75;;;5.95;65.69
58385;BME280;44185;47.844;8.966;2023-04-06T08:57:11;96367.53;;;5.90;62.04
58385;BME280;44185;47.844;8.966;2023-04-06T08:59:38;96370.09;;;6.05;62.81
58385;BME280;44185;47.844;8.966;2023-04-06T09:02:06;96374.28;;;6.22;61.95
58385;BME280;44185;47.844;8.966;2023-04-06T09:04:32;96370.91;;;6.20;63.05
58385;BME280;44185;47.844;8.966;2023-04-06T09:06:58;96368.25;;;6.07;60.86
58385;BME280;44185;47.844;8.966;2023-04-06T09:09:24;96361.78;;;6.26;60.14
58385;BME280;44185;47.844;8.966;2023-04-06T09:11:50;96366.22;;;6.39;60.13
58385;BME280;44185;47.844;8.966;2023-04-06T09:14:16;96363.97;;;6.32;61.04
58385;BME280;44185;47.844;8.966;2023-04-06T09:16:43;96351.81;;;6.44;58.54
58385;BME280;44185;47.844;8.966;2023-04-06T09:19:11;96358.03;;;6.70;59.78
58385;BME280;44185;47.844;8.966;2023-04-06T09:21:37;96359.28;;;6.64;59.06
58385;BME280;44185;47.844;8.966;2023-04-06T09:24:03;96363.19;;;6.71;55.15
58385;BME280;44185;47.844;8.966;2023-04-06T09:26:29;96362.53;;;6.94;57.09
58385;BME280;44185;47.844;8.966;2023-04-06T09:28:56;96363.81;;;6.75;57.83
58385;BME280;44185;47.844;8.966;2023-04-06T09:31:24;96352.97;;;6.79;59.13
58385;BME280;44185;47.844;8.966;2023-04-06T09:33:49;96355.19;;;6.47;55.81
58385;BME280;44185;47.844;8.966;2023-04-06T09:36:16;96348.97;;;6.48;56.56
58385;BME280;44185;47.844;8.966;2023-04-06T09:38:52;96351.63;;;6.87;56.54
58385;BME280;44185;47.844;8.966;2023-04-06T09:41:21;96349.59;;;7.04;56.11
58385;BME280;44185;47.844;8.966;2023-04-06T09:43:47;96346.00;;;7.18;55.03
58385;BME280;44185;47.844;8.966;2023-04-06T09:46:12;96339.31;;;7.38;56.41
58385;BME280;44185;47.844;8.966;2023-04-06T09:48:39;96343.00;;;7.36;56.49
58385;BME280;44185;47.844;8.966;2023-04-06T09:51:05;96342.19;;;7.60;55.06
58385;BME280;44185;47.844;8.966;2023-04-06T09:53:37;96334.72;;;7.78;54.60
58385;BME280;44185;47.844;8.966;2023-04-06T09:56:06;96340.41;;;7.85;48.92
58385;BME280;44185;47.844;8.966;2023-04-06T09:58:34;96330.16;;;7.93;49.96
58385;BME280;44185;47.844;8.966;2023-04-06T10:01:06;96333.50;;;7.71;49.26
58385;BME280;44185;47.844;8.966;2023-04-06T10:03:40;96341.00;;;7.88;48.52
58385;BME280;44185;47.844;8.966;2023-04-06T10:06:10;96329.66;;;7.63;45.11
58385;BME280;44185;47.844;8.966;2023-04-06T10:08:40;96326.94;;;8.01;46.25
58385;BME280;44185;47.844;8.966;2023-04-06T10:11:06;96336.13;;;8.20;45.39
58385;BME280;44185;47.844;8.966;2023-04-06T10:13:32;96324.66;;;8.55;49.40
58385;BME280;44185;47.844;8.966;2023-04-06T10:15:59;96330.84;;;8.79;47.96
58385;BME280;44185;47.844;8.966;2023-04-06T10:18:25;96323.06;;;9.00;45.51
58385;BME280;44185;47.844;8.966;2023-04-06T10:20:54;96324.84;;;8.77;43.62
58385;BME280;44185;47.844;8.966;2023-04-06T10:23:24;96313.13;;;8.81;46.39
58385;BME280;44185;47.844;8.966;2023-04-06T10:25:54;96317.19;;;8.85;46.41
58385;BME280;44185;47.844;8.966;2023-04-06T10:28:20;96321.75;;;9.18;44.90
58385;BME280;44185;47.844;8.966;2023-04-06T10:30:46;96319.56;;;9.23;43.97
58385;BME280;44185;47.844;8.966;2023-04-06T10:33:14;96325.91;;;9.32;43.30
58385;BME280;44185;47.844;8.966;2023-04-06T10:35:40;96321.84;;;9.72;42.35
58385;BME280;44185;47.844;8.966;2023-04-06T10:38:06;96315.25;;;9.66;41.71
58385;BME280;44185;47.844;8.966;2023-04-06T10:40:31;96311.00;;;9.87;41.93
58385;BME280;44185;47.844;8.966;2023-04-06T10:43:08;96314.66;;;10.07;40.17
58385;BME280;44185;47.844;8.966;2023-04-06T10:45:34;96316.16;;;10.21;40.40
58385;BME280;44185;47.844;8.966;2023-04-06T10:48:01;96310.59;;;10.24;39.38
58385;BME280;44185;47.844;8.966;2023-04-06T10:50:38;96312.47;;;10.34;37.17
58385;BME280;44185;47.844;8.966;2023-04-06T10:53:04;96312.56;;;9.89;36.05
58385;BME280;44185;47.844;8.966;2023-04-06T10:55:30;96309.78;;;9.58;39.00
58385;BME280;44185;47.844;8.966;2023-04-06T10:57:56;96317.59;;;10.14;40.88
58385;BME280;44185;47.844;8.966;2023-04-06T11:00:23;96310.94;;;10.31;38.55
58385;BME280;44185;47.844;8.966;2023-04-06T11:02:49;96317.38;;;10.39;37.40
58385;BME280;44185;47.844;8.966;2023-04-06T11:05:14;96310.78;;;10.33;41.01
58385;BME280;44185;47.844;8.966;2023-04-06T11:07:40;96318.41;;;10.48;42.46
58385;BME280;44185;47.844;8.966;2023-04-06T11:10:07;96316.28;;;10.41;39.96
58385;BME280;44185;47.844;8.966;2023-04-06T11:12:33;96312.03;;;10.72;41.69
58385;BME280;44185;47.844;8.966;2023-04-06T11:14:59;96313.25;;;10.99;40.85
58385;BME280;44185;47.844;8.966;2023-04-06T11:17:27;96305.44;;;10.44;37.86
58385;BME280;44185;47.844;8.966;2023-04-06T11:19:53;96301.19;;;9.77;39.19
58385;BME280;44185;47.844;8.966;2023-04-06T11:22:18;96291.41;;;10.32;42.34
58385;BME280;44185;47.844;8.966;2023-04-06T11:24:44;96290.81;;;10.40;40.85
58385;BME280;44185;47.844;8.966;2023-04-06T11:27:09;96294.66;;;9.49;38.12
58385;BME280;44185;47.844;8.966;2023-04-06T11:29:35;96287.50;;;10.05;40.36
58385;BME280;44185;47.844;8.966;2023-04-06T11:32:01;96286.06;;;10.01;39.96
58385;BME280;44185;47.844;8.966;2023-04-06T11:34:30;96285.13;;;10.45;38.27
58385;BME280;44185;47.844;8.966;2023-04-06T11:36:57;96283.63;;;10.74;40.72
58385;BME280;44185;47.844;8.966;2023-04-06T11:39:24;96275.63;;;10.95;38.48
58385;BME280;44185;47.844;8.966;2023-04-06T11:41:50;96273.53;;;10.99;39.30
58385;BME280;44185;47.844;8.966;2023-04-06T11:44:26;96273.88;;;10.74;38.11
58385;BME280;44185;47.844;8.966;2023-04-06T11:46:52;96270.19;;;10.97;41.51
58385;BME280;44185;47.844;8.966;2023-04-06T11:49:18;96275.19;;;10.90;39.32
58385;BME280;44185;47.844;8.966;2023-04-06T11:51:46;96270.38;;;10.74;39.56
58385;BME280;44185;47.844;8.966;2023-04-06T11:54:11;96263.72;;;11.31;40.78
58385;BME280;44185;47.844;8.966;2023-04-06T11:56:37;96260.44;;;11.68;40.42
58385;BME280;44185;47.844;8.966;2023-04-06T11:59:03;96267.25;;;11.51;38.91
58385;BME280;44185;47.844;8.966;2023-04-06T12:01:28;96260.00;;;11.43;38.71
58385;BME280;44185;47.844;8.966;2023-04-06T12:03:54;96260.97;;;11.52;38.50
58385;BME280;44185;47.844;8.966;2023-04-06T12:06:19;96251.63;;;11.38;37.70
58385;BME280;44185;47.844;8.966;2023-04-06T12:08:46;96249.94;;;11.27;39.83
58385;BME280;44185;47.844;8.966;2023-04-06T12:11:11;96249.88;;;11.07;37.87
58385;BME280;44185;47.844;8.966;2023-04-06T12:13:37;96247.53;;;11.14;39.67
58385;BME280;44185;47.844;8.966;2023-04-06T12:16:03;96247.56;;;11.44;40.46
58385;BME280;44185;47.844;8.966;2023-04-06T12:18:29;96239.66;;;11.64;38.87
58385;BME280;44185;47.844;8.966;2023-04-06T12:20:55;96242.13;;;11.95;38.58
58385;BME280;44185;47.844;8.966;2023-04-06T12:23:20;96241.84;;;12.28;39.25
58385;BME280;44185;47.844;8.966;2023-04-06T12:25:47;96238.81;;;11.93;37.42
58385;BME280;44185;47.844;8.966;2023-04-06T12:28:13;96236.28;;;12.21;39.79
58385;BME280;44185;47.844;8.966;2023-04-06T12:30:38;96229.72;;;11.76;39.30
58385;BME280;44185;47.844;8.966;2023-04-06T12:33:04;96221.75;;;12.26;38.32
58385;BME280;44185;47.844;8.966;2023-04-06T12:35:33;96232.53;;;11.54;37.31
58385;BME280;44185;47.844;8.966;2023-04-06T12:37:58;96233.75;;;12.10;39.39
58385;BME280;44185;47.844;8.966;2023-04-06T12:40:24;96227.72;;;12.38;38.50
58385;BME280;44185;47.844;8.966;2023-04-06T12:42:51;96221.25;;;12.50;38.75
58385;BME280;44185;47.844;8.966;2023-04-06T12:45:16;96225.53;;;12.03;36.85
58385;BME280;44185;47.844;8.966;2023-04-06T12:47:42;96220.22;;;12.23;37.40
58385;BME280;44185;47.844;8.966;2023-04-06T12:50:08;96226.19;;;12.35;36.61
58385;BME280;44185;47.844;8.966;2023-04-06T12:52:34;96223.97;;;12.10;36.70
58385;BME280;44185;47.844;8.966;2023-04-06T12:54:59;96224.06;;;12.49;36.87